sensor_id;sensor_type;location;lat;lon;timestamp;pressure;altitude;pressure_sealevel;temperature;humidity
13695;BME280;6919;52.344;14.518;2024-03-06T00:00:32;101145.13;;;2.34;100.00
13695;BME280;6919;52.344;14.518;2024-03-06T00:03:00;101142.00;;;2.42;100.00
13695;BME280;6919;52.344;14.518;2024-03-06T00:05:30;101146.38;;;2.43;100.00
13695;BME280;6919;52.344;14.518;2024-03-06T00:07:58;101148.44;;;2.38;100.00
13695;BME280;6919;52.344;14.518;2024-03-06T00:10:27;101143.75;;;2.43;100.00
13695;BME280;6919;52.344;14.518;2024-03-06T00:12:56;101143.88;;;2.55;100.00
13695;BME280;6919;52.344;14.518;2024-03-06T00:15:24;101150.00;;;2.56;100.00
13695;BME280;6919;52.344;14.518;2024-03-06T00:17:53;101151.50;;;2.46;100.00
13695;BME280;6919;52.344;14.518;2024-03-06T00:20:22;101152.38;;;2.31;100.00
13695;BME280;6919;52.344;14.518;2024-03-06T00:22:50;101153.66;;;2.24;100.00
13695;BME280;6919;52.344;14.518;2024-03-06T00:25:18;101165.38;;;2.20;100.00
13695;BME280;6919;52.344;14.518;2024-03-06T00:27:47;101159.41;;;2.16;100.00
13695;BME280;6919;52.344;14.518;2024-03-06T00:30:16;101156.31;;;2.24;100.00
13695;BME280;6919;52.344;14.518;2024-03-06T00:32:44;101161.69;;;2.22;100.00
13695;BME280;6919;52.344;14.518;2024-03-06T00:35:14;101162.72;;;2.20;100.00
13695;BME280;6919;52.344;14.518;2024-03-06T00:37:42;101168.72;;;2.08;100.00
13695;BME280;6919;52.344;14.518;2024-03-06T00:40:13;101170.09;;;2.15;100.00
13695;BME280;6919;52.344;14.518;2024-03-06T00:42:41;101176.28;;;2.14;100.00
13695;BME280;6919;52.344;14.518;2024-03-06T00:45:09;101178.50;;;2.21;100.00
13695;BME280;6919;52.344;14.518;2024-03-06T00:47:38;101174.66;;;2.27;100.00
13695;BME280;6919;52.344;14.518;2024-03-06T00:50:07;101172.50;;;2.33;100.00
13695;BME280;6919;52.344;14.518;2024-03-06T00:52:36;101176.50;;;2.40;100.00
13695;BME280;6919;52.344;14.518;2024-03-06T00:55:06;101170.88;;;2.31;100.00
13695;BME280;6919;52.344;14.518;2024-03-06T00:57:34;101182.50;;;2.28;100.00
13695;BME280;6919;52.344;14.518;2024-03-06T01:00:03;101176.97;;;2.17;100.00
13695;BME280;6919;52.344;14.518;2024-03-06T01:02:37;101180.81;;;2.12;100.00
13695;BME280;6919;52.344;14.518;2024-03-06T01:05:06;101181.25;;;2.04;100.00
13695;BME280;6919;52.344;14.518;2024-03-06T01:07:39;101177.56;;;2.07;100.00
13695;BME280;6919;52.344;14.518;2024-03-06T01:10:09;101186.47;;;2.06;100.00
13695;BME280;6919;52.344;14.518;2024-03-06T01:12:37;101193.56;;;1.90;100.00
13695;BME280;6919;52.344;14.518;2024-03-06T01:15:06;101187.25;;;1.92;100.00
13695;BME280;6919;52.344;14.518;2024-03-06T01:17:35;101190.03;;;1.89;100.00
13695;BME280;6919;52.344;14.518;2024-03-06T01:20:04;101190.75;;;1.93;100.00
13695;BME280;6919;52.344;14.518;2024-03-06T01:22:34;101205.31;;;1.84;100.00
13695;BME280;6919;52.344;14.518;2024-03-06T01:25:04;101205.66;;;1.94;100.00
13695;BME280;6919;52.344;14.518;2024-03-06T01:27:34;101203.03;;;1.94;100.00
13695;BME280;6919;52.344;14.518;2024-03-06T01:30:03;101199.97;;;1.86;100.00
13695;BME280;6919;52.344;14.518;2024-03-06T01:32:32;101199.75;;;1.89;100.00
13695;BME280;6919;52.344;14.518;2024-03-06T01:35:00;101201.66;;;1.87;100.00
13695;BME280;6919;52.344;14.518;2024-03-06T01:37:29;101206.63;;;1.93;100.00
13695;BME280;6919;52.344;14.518;2024-03-06T01:39:58;101212.06;;;1.90;100.00
13695;BME280;6919;52.344;14.518;2024-03-06T01:42:27;101207.34;;;1.79;100.00
13695;BME280;6919;52.344;14.518;2024-03-06T01:44:56;101215.13;;;1.82;100.00
13695;BME280;6919;52.344;14.518;2024-03-06T01:47:24;101217.28;;;1.91;100.00
13695;BME280;6919;52.344;14.518;2024-03-06T01:49:52;101220.91;;;1.89;100.00
13695;BME280;6919;52.344;14.518;2024-03-06T01:52:22;101214.44;;;1.94;100.00
13695;BME280;6919;52.344;14.518;2024-03-06T01:54:51;101217.59;;;2.01;100.00
13695;BME280;6919;52.344;14.518;2024-03-06T01:57:20;101210.88;;;1.95;100.00
13695;BME280;6919;52.344;14.518;2024-03-06T01:59:50;101214.53;;;1.93;100.00
13695;BME280;6919;52.344;14.518;2024-03-06T02:02:19;101216.50;;;1.89;100.00
13695;BME280;6919;52.344;14.518;2024-03-06T02:04:47;101219.06;;;1.91;100.00
13695;BME280;6919;52.344;14.518;2024-03-06T02:07:16;101217.69;;;1.99;100.00
13695;BME280;6919;52.344;14.518;2024-03-06T02:09:45;101229.38;;;1.95;100.00
13695;BME280;6919;52.344;14.518;2024-03-06T02:12:13;101231.41;;;1.90;100.00
13695;BME280;6919;52.344;14.518;2024-03-06T02:14:42;101230.41;;;1.93;100.00
13695;BME280;6919;52.344;14.518;2024-03-06T02:17:12;101223.31;;;1.93;100.00
13695;BME280;6919;52.344;14.518;2024-03-06T02:19:42;101224.59;;;1.86;100.00
13695;BME280;6919;52.344;14.518;2024-03-06T02:22:12;101226.63;;;1.81;100.00
13695;BME280;6919;52.344;14.518;2024-03-06T02:24:48;101223.53;;;1.73;100.00
13695;BME280;6919;52.344;14.518;2024-03-06T02:27:16;101225.34;;;1.73;100.00
13695;BME280;6919;52.344;14.518;2024-03-06T02:29:45;101222.72;;;1.73;100.00
13695;BME280;6919;52.344;14.518;2024-03-06T02:32:13;101225.03;;;1.79;100.00
13695;BME280;6919;52.344;14.518;2024-03-06T02:34:43;101229.03;;;1.70;100.00
13695;BME280;6919;52.344;14.518;2024-03-06T02:37:12;101227.38;;;1.52;100.00
13695;BME280;6919;52.344;14.518;2024-03-06T02:39:41;101229.25;;;1.66;100.00
13695;BME280;6919;52.344;14.518;2024-03-06T02:42:09;101230.63;;;1.73;100.00
13695;BME280;6919;52.344;14.518;2024-03-06T02:44:37;101240.59;;;1.68;100.00
13695;BME280;6919;52.344;14.518;2024-03-06T02:47:06;101234.63;;;1.64;100.00
13695;BME280;6919;52.344;14.518;2024-03-06T02:49:34;101234.41;;;1.84;100.00
13695;BME280;6919;52.344;14.518;2024-03-06T02:52:03;101236.34;;;1.81;100.00
13695;BME280;6919;52.344;14.518;2024-03-06T02:54:33;101236.28;;;1.82;100.00
13695;BME280;6919;52.344;14.518;2024-03-06T02:57:01;101231.16;;;1.79;100.00
13695;BME280;6919;52.344;14.518;2024-03-06T02:59:29;101236.75;;;1.73;100.00
13695;BME280;6919;52.344;14.518;2024-03-06T03:01:58;101238.28;;;1.62;100.00
13695;BME280;6919;52.344;14.518;2024-03-06T03:04:27;101241.69;;;1.64;100.00
13695;BME280;6919;52.344;14.518;2024-03-06T03:06:55;101248.72;;;1.65;100.00
13695;BME280;6919;52.344;14.518;2024-03-06T03:09:23;101252.19;;;1.65;100.00
13695;BME280;6919;52.344;14.518;2024-03-06T03:11:53;101251.50;;;1.62;100.00
13695;BME280;6919;52.344;14.518;2024-03-06T03:14:21;101262.50;;;1.70;100.00
13695;BME280;6919;52.344;14.518;2024-03-06T03:16:49;101265.25;;;1.68;100.00
13695;BME280;6919;52.344;14.518;2024-03-06T03:19:17;101263.03;;;1.76;100.00
13695;BME280;6919;52.344;14.518;2024-03-06T03:21:45;101257.06;;;1.73;100.00
13695;BME280;6919;52.344;14.518;2024-03-06T03:24:14;101266.94;;;1.69;100.00
13695;BME280;6919;52.344;14.518;2024-03-06T03:26:43;101262.44;;;1.71;100.00
13695;BME280;6919;52.344;14.518;2024-03-06T03:29:13;101262.47;;;1.87;100.00
13695;BME280;6919;52.344;14.518;2024-03-06T03:31:41;101270.41;;;2.02;100.00
13695;BME280;6919;52.344;14.518;2024-03-06T03:34:10;101263.00;;;2.09;100.00
13695;BME280;6919;52.344;14.518;2024-03-06T03:36:40;101267.59;;;2.21;100.00
13695;BME280;6919;52.344;14.518;2024-03-06T03:39:12;101268.88;;;2.29;100.00
13695;BME280;6919;52.344;14.518;2024-03-06T03:41:44;101271.25;;;2.34;100.00
13695;BME280;6919;52.344;14.518;2024-03-06T03:44:14;101278.34;;;2.33;100.00
13695;BME280;6919;52.344;14.518;2024-03-06T03:46:43;101283.75;;;2.32;100.00
13695;BME280;6919;52.344;14.518;2024-03-06T03:49:12;101290.28;;;2.40;100.00
13695;BME280;6919;52.344;14.518;2024-03-06T03:51:41;101290.91;;;2.45;100.00
13695;BME280;6919;52.344;14.518;2024-03-06T03:54:09;101293.47;;;2.47;100.00
13695;BME280;6919;52.344;14.518;2024-03-06T03:56:38;101294.28;;;2.47;100.00
13695;BME280;6919;52.344;14.518;2024-03-06T03:59:06;101292.09;;;2.55;100.00
13695;BME280;6919;52.344;14.518;2024-03-06T04:01:37;101298.50;;;2.51;100.00
13695;BME280;6919;52.344;14.518;2024-03-06T04:04:06;101293.53;;;2.61;100.00
13695;BME280;6919;52.344;14.518;2024-03-06T04:06:35;101293.16;;;2.67;100.00
13695;BME280;6919;52.344;14.518;2024-03-06T04:09:04;101298.91;;;2.75;100.00
13695;BME280;6919;52.344;14.518;2024-03-06T04:11:33;101295.63;;;2.85;100.00
13695;BME280;6919;52.344;14.518;2024-03-06T04:14:03;101301.47;;;2.76;100.00
13695;BME280;6919;52.344;14.518;2024-03-06T04:16:33;101304.78;;;2.80;100.00
13695;BME280;6919;52.344;14.518;2024-03-06T04:19:03;101306.13;;;2.87;100.00
13695;BME280;6919;52.344;14.518;2024-03-06T04:21:32;101312.78;;;2.94;100.00
13695;BME280;6919;52.344;14.518;2024-03-06T04:24:00;101311.81;;;2.95;100.00
13695;BME280;6919;52.344;14.518;2024-03-06T04:26:29;101311.47;;;3.01;100.00
13695;BME280;6919;52.344;14.518;2024-03-06T04:28:57;101311.78;;;3.10;100.00
13695;BME280;6919;52.344;14.518;2024-03-06T04:31:26;101316.69;;;3.02;100.00
13695;BME280;6919;52.344;14.518;2024-03-06T04:33:55;101314.31;;;2.98;100.00
13695;BME280;6919;52.344;14.518;2024-03-06T04:36:25;101310.78;;;3.13;100.00
13695;BME280;6919;52.344;14.518;2024-03-06T04:38:53;101318.75;;;3.27;100.00
13695;BME280;6919;52.344;14.518;2024-03-06T04:41:22;101323.69;;;3.33;100.00
13695;BME280;6919;52.344;14.518;2024-03-06T04:43:51;101321.63;;;3.38;100.00
13695;BME280;6919;52.344;14.518;2024-03-06T04:46:20;101317.69;;;3.45;100.00
13695;BME280;6919;52.344;14.518;2024-03-06T04:48:48;101311.91;;;3.53;100.00
13695;BME280;6919;52.344;14.518;2024-03-06T04:51:17;101322.78;;;3.62;100.00
13695;BME280;6919;52.344;14.518;2024-03-06T04:53:48;101314.44;;;3.40;100.00
13695;BME280;6919;52.344;14.518;2024-03-06T04:56:17;101318.03;;;3.39;100.00
13695;BME280;6919;52.344;14.518;2024-03-06T04:58:48;101321.81;;;3.35;100.00
13695;BME280;6919;52.344;14.518;2024-03-06T05:01:16;101318.03;;;3.39;100.00
13695;BME280;6919;52.344;14.518;2024-03-06T05:03:45;101327.25;;;3.48;100.00
13695;BME280;6919;52.344;14.518;2024-03-06T05:06:31;101328.03;;;3.34;100.00
13695;BME280;6919;52.344;14.518;2024-03-06T05:09:19;101331.50;;;3.50;100.00
13695;BME280;6919;52.344;14.518;2024-03-06T05:12:05;101334.25;;;3.63;100.00
13695;BME280;6919;52.344;14.518;2024-03-06T05:14:51;101333.13;;;3.67;100.00
13695;BME280;6919;52.344;14.518;2024-03-06T05:17:37;101339.41;;;3.80;100.00
13695;BME280;6919;52.344;14.518;2024-03-06T05:20:23;101339.38;;;3.66;100.00
13695;BME280;6919;52.344;14.518;2024-03-06T05:23:10;101343.47;;;3.85;100.00
13695;BME280;6919;52.344;14.518;2024-03-06T05:25:58;101347.00;;;3.86;100.00
13695;BME280;6919;52.344;14.518;2024-03-06T05:28:44;101355.13;;;3.83;100.00
13695;BME280;6919;52.344;14.518;2024-03-06T05:31:30;101360.13;;;3.73;100.00
13695;BME280;6919;52.344;14.518;2024-03-06T05:34:16;101357.47;;;3.73;100.00
13695;BME280;6919;52.344;14.518;2024-03-06T05:37:02;101362.50;;;3.92;100.00
13695;BME280;6919;52.344;14.518;2024-03-06T05:39:49;101359.22;;;3.88;100.00
13695;BME280;6919;52.344;14.518;2024-03-06T05:42:37;101361.47;;;4.08;100.00
13695;BME280;6919;52.344;14.518;2024-03-06T05:45:23;101367.56;;;3.96;100.00
13695;BME280;6919;52.344;14.518;2024-03-06T05:48:09;101368.88;;;3.89;100.00
13695;BME280;6919;52.344;14.518;2024-03-06T05:50:55;101365.28;;;4.04;100.00
13695;BME280;6919;52.344;14.518;2024-03-06T05:53:42;101363.84;;;3.99;100.00
13695;BME280;6919;52.344;14.518;2024-03-06T05:56:28;101368.41;;;3.83;100.00
13695;BME280;6919;52.344;14.518;2024-03-06T05:59:16;101375.03;;;3.90;100.00
13695;BME280;6919;52.344;14.518;2024-03-06T06:01:44;101373.22;;;4.18;100.00
13695;BME280;6919;52.344;14.518;2024-03-06T06:04:14;101371.16;;;4.23;100.00
13695;BME280;6919;52.344;14.518;2024-03-06T06:06:43;101377.31;;;4.24;100.00
13695;BME280;6919;52.344;14.518;2024-03-06T06:09:11;101380.28;;;4.19;100.00
13695;BME280;6919;52.344;14.518;2024-03-06T06:11:43;101380.63;;;4.13;100.00
13695;BME280;6919;52.344;14.518;2024-03-06T06:14:11;101378.09;;;4.26;100.00
13695;BME280;6919;52.344;14.518;2024-03-06T06:16:42;101377.03;;;4.14;100.00
13695;BME280;6919;52.344;14.518;2024-03-06T06:19:11;101376.84;;;4.17;100.00
13695;BME280;6919;52.344;14.518;2024-03-06T06:21:39;101380.72;;;4.26;100.00
13695;BME280;6919;52.344;14.518;2024-03-06T06:24:08;101381.78;;;4.23;100.00
13695;BME280;6919;52.344;14.518;2024-03-06T06:26:37;101386.31;;;3.93;100.00
13695;BME280;6919;52.344;14.518;2024-03-06T06:29:05;101380.72;;;3.98;100.00
13695;BME280;6919;52.344;14.518;2024-03-06T06:31:35;101389.84;;;4.08;100.00
13695;BME280;6919;52.344;14.518;2024-03-06T06:34:05;101394.00;;;4.12;100.00
13695;BME280;6919;52.344;14.518;2024-03-06T06:36:34;101389.75;;;4.09;100.00
13695;BME280;6919;52.344;14.518;2024-03-06T06:39:03;101388.78;;;4.10;100.00
13695;BME280;6919;52.344;14.518;2024-03-06T06:41:33;101396.94;;;4.35;100.00
13695;BME280;6919;52.344;14.518;2024-03-06T06:44:02;101402.44;;;4.46;100.00
13695;BME280;6919;52.344;14.518;2024-03-06T06:46:31;101397.81;;;4.36;100.00
13695;BME280;6919;52.344;14.518;2024-03-06T06:48:59;101396.75;;;4.24;100.00
13695;BME280;6919;52.344;14.518;2024-03-06T06:51:29;101405.94;;;4.19;100.00
13695;BME280;6919;52.344;14.518;2024-03-06T06:53:58;101395.59;;;4.28;100.00
13695;BME280;6919;52.344;14.518;2024-03-06T06:56:27;101398.44;;;4.25;100.00
13695;BME280;6919;52.344;14.518;2024-03-06T06:58:56;101410.09;;;4.51;100.00
13695;BME280;6919;52.344;14.518;2024-03-06T07:01:25;101416.44;;;4.76;100.00
13695;BME280;6919;52.344;14.518;2024-03-06T07:03:54;101421.97;;;4.59;100.00
13695;BME280;6919;52.344;14.518;2024-03-06T07:06:23;101430.75;;;4.60;100.00
13695;BME280;6919;52.344;14.518;2024-03-06T07:08:53;101428.00;;;4.61;100.00
13695;BME280;6919;52.344;14.518;2024-03-06T07:11:21;101430.06;;;4.98;100.00
13695;BME280;6919;52.344;14.518;2024-03-06T07:13:51;101432.47;;;5.15;100.00
13695;BME280;6919;52.344;14.518;2024-03-06T07:16:19;101434.56;;;5.10;100.00
13695;BME280;6919;52.344;14.518;2024-03-06T07:18:48;101439.94;;;4.82;100.00
13695;BME280;6919;52.344;14.518;2024-03-06T07:21:17;101440.81;;;4.69;100.00
13695;BME280;6919;52.344;14.518;2024-03-06T07:23:45;101444.34;;;4.69;100.00
13695;BME280;6919;52.344;14.518;2024-03-06T07:26:16;101444.53;;;4.66;100.00
13695;BME280;6919;52.344;14.518;2024-03-06T07:28:44;101446.81;;;4.72;100.00
13695;BME280;6919;52.344;14.518;2024-03-06T07:31:13;101460.56;;;4.79;100.00
13695;BME280;6919;52.344;14.518;2024-03-06T07:33:41;101456.63;;;4.98;100.00
13695;BME280;6919;52.344;14.518;2024-03-06T07:36:10;101474.41;;;5.24;100.00
13695;BME280;6919;52.344;14.518;2024-03-06T07:38:39;101467.78;;;5.17;100.00
13695;BME280;6919;52.344;14.518;2024-03-06T07:41:09;101473.78;;;5.07;100.00
13695;BME280;6919;52.344;14.518;2024-03-06T07:43:39;101474.09;;;4.88;100.00
13695;BME280;6919;52.344;14.518;2024-03-06T07:46:08;101473.28;;;5.14;100.00
13695;BME280;6919;52.344;14.518;2024-03-06T07:48:42;101479.00;;;5.08;100.00
13695;BME280;6919;52.344;14.518;2024-03-06T07:51:12;101479.41;;;5.02;100.00
13695;BME280;6919;52.344;14.518;2024-03-06T07:53:40;101490.47;;;5.09;100.00
13695;BME280;6919;52.344;14.518;2024-03-06T07:56:10;101490.28;;;5.12;100.00
13695;BME280;6919;52.344;14.518;2024-03-06T07:58:41;101487.47;;;5.41;100.00
13695;BME280;6919;52.344;14.518;2024-03-06T08:01:09;101490.72;;;5.32;100.00
13695;BME280;6919;52.344;14.518;2024-03-06T08:03:39;101487.56;;;5.40;100.00
13695;BME280;6919;52.344;14.518;2024-03-06T08:06:09;101493.94;;;5.37;100.00
13695;BME280;6919;52.344;14.518;2024-03-06T08:08:39;101491.84;;;5.28;100.00
13695;BME280;6919;52.344;14.518;2024-03-06T08:11:08;101491.91;;;5.41;100.00
13695;BME280;6919;52.344;14.518;2024-03-06T08:13:40;101492.84;;;5.13;100.00
13695;BME280;6919;52.344;14.518;2024-03-06T08:16:08;101488.56;;;5.51;100.00
13695;BME280;6919;52.344;14.518;2024-03-06T08:18:37;101494.63;;;5.53;100.00
13695;BME280;6919;52.344;14.518;2024-03-06T08:21:06;101492.44;;;5.60;100.00
13695;BME280;6919;52.344;14.518;2024-03-06T08:23:34;101496.84;;;5.73;100.00
13695;BME280;6919;52.344;14.518;2024-03-06T08:26:03;101494.91;;;5.89;100.00
13695;BME280;6919;52.344;14.518;2024-03-06T08:28:32;101500.06;;;6.05;100.00
13695;BME280;6919;52.344;14.518;2024-03-06T08:31:02;101497.91;;;5.97;100.00
13695;BME280;6919;52.344;14.518;2024-03-06T08:33:31;101498.91;;;6.22;100.00
13695;BME280;6919;52.344;14.518;2024-03-06T08:35:59;101502.66;;;6.57;100.00
13695;BME280;6919;52.344;14.518;2024-03-06T08:38:28;101503.38;;;6.34;100.00
13695;BME280;6919;52.344;14.518;2024-03-06T08:40:56;101512.66;;;6.66;100.00
13695;BME280;6919;52.344;14.518;2024-03-06T08:43:25;101512.13;;;6.48;100.00
13695;BME280;6919;52.344;14.518;2024-03-06T08:45:54;101502.19;;;6.63;100.00
13695;BME280;6919;52.344;14.518;2024-03-06T08:48:23;101511.13;;;6.99;100.00
13695;BME280;6919;52.344;14.518;2024-03-06T08:50:52;101510.59;;;7.07;100.00
13695;BME280;6919;52.344;14.518;2024-03-06T08:53:21;101514.94;;;7.08;100.00
13695;BME280;6919;52.344;14.518;2024-03-06T08:55:50;101509.28;;;7.12;100.00
13695;BME280;6919;52.344;14.518;2024-03-06T08:58:18;101514.06;;;7.20;100.00
13695;BME280;6919;52.344;14.518;2024-03-06T09:00:48;101507.25;;;7.16;100.00
13695;BME280;6919;52.344;14.518;2024-03-06T09:03:17;101510.84;;;7.27;100.00
13695;BME280;6919;52.344;14.518;2024-03-06T09:05:46;101510.44;;;7.21;100.00
13695;BME280;6919;52.344;14.518;2024-03-06T09:08:15;101515.25;;;7.16;100.00
13695;BME280;6919;52.344;14.518;2024-03-06T09:10:44;101511.09;;;7.12;100.00
13695;BME280;6919;52.344;14.518;2024-03-06T09:13:12;101517.69;;;7.19;100.00
13695;BME280;6919;52.344;14.518;2024-03-06T09:15:41;101519.19;;;7.82;100.00
13695;BME280;6919;52.344;14.518;2024-03-06T09:18:10;101531.72;;;7.93;100.00
13695;BME280;6919;52.344;14.518;2024-03-06T09:20:39;101531.22;;;7.88;100.00
13695;BME280;6919;52.344;14.518;2024-03-06T09:23:09;101528.41;;;8.13;100.00
13695;BME280;6919;52.344;14.518;2024-03-06T09:25:38;101522.19;;;7.78;100.00
13695;BME280;6919;52.344;14.518;2024-03-06T09:28:07;101538.72;;;7.23;100.00
13695;BME280;6919;52.344;14.518;2024-03-06T09:30:36;101542.38;;;7.46;100.00
13695;BME280;6919;52.344;14.518;2024-03-06T09:33:05;101541.91;;;7.88;100.00
13695;BME280;6919;52.344;14.518;2024-03-06T09:35:34;101539.78;;;8.04;100.00
13695;BME280;6919;52.344;14.518;2024-03-06T09:38:03;101550.50;;;8.15;100.00
13695;BME280;6919;52.344;14.518;2024-03-06T09:40:33;101549.50;;;8.05;100.00
13695;BME280;6919;52.344;14.518;2024-03-06T09:43:02;101547.97;;;7.90;100.00
13695;BME280;6919;52.344;14.518;2024-03-06T09:45:31;101554.38;;;7.87;100.00
13695;BME280;6919;52.344;14.518;2024-03-06T09:47:59;101554.09;;;8.03;100.00
13695;BME280;6919;52.344;14.518;2024-03-06T09:50:29;101554.38;;;8.34;100.00
13695;BME280;6919;52.344;14.518;2024-03-06T09:53:04;101558.69;;;8.59;100.00
13695;BME280;6919;52.344;14.518;2024-03-06T09:55:35;101554.53;;;8.44;100.00
13695;BME280;6919;52.344;14.518;2024-03-06T09:58:05;101551.66;;;8.58;100.00
13695;BME280;6919;52.344;14.518;2024-03-06T10:00:34;101555.69;;;8.74;100.00
13695;BME280;6919;52.344;14.518;2024-03-06T10:03:04;101550.72;;;9.03;100.00
13695;BME280;6919;52.344;14.518;2024-03-06T10:05:35;101550.34;;;8.29;100.00
13695;BME280;6919;52.344;14.518;2024-03-06T10:08:05;101543.63;;;8.58;100.00
13695;BME280;6919;52.344;14.518;2024-03-06T10:10:35;101548.41;;;8.31;100.00
13695;BME280;6919;52.344;14.518;2024-03-06T10:13:04;101550.59;;;9.04;100.00
13695;BME280;6919;52.344;14.518;2024-03-06T10:15:34;101550.94;;;9.00;100.00
13695;BME280;6919;52.344;14.518;2024-03-06T10:18:14;101555.09;;;9.26;100.00
13695;BME280;6919;52.344;14.518;2024-03-06T10:20:45;101554.00;;;9.29;100.00
13695;BME280;6919;52.344;14.518;2024-03-06T10:23:15;101558.75;;;9.25;100.00
13695;BME280;6919;52.344;14.518;2024-03-06T10:25:47;101550.22;;;9.31;100.00
13695;BME280;6919;52.344;14.518;2024-03-06T10:28:19;101546.56;;;8.66;100.00
13695;BME280;6919;52.344;14.518;2024-03-06T10:30:50;101549.00;;;9.35;100.00
13695;BME280;6919;52.344;14.518;2024-03-06T10:33:19;101557.22;;;9.65;100.00
13695;BME280;6919;52.344;14.518;2024-03-06T10:35:48;101557.66;;;9.81;100.00
13695;BME280;6919;52.344;14.518;2024-03-06T10:38:20;101564.16;;;9.68;100.00
13695;BME280;6919;52.344;14.518;2024-03-06T10:40:51;101559.09;;;10.07;100.00
13695;BME280;6919;52.344;14.518;2024-03-06T10:43:21;101558.13;;;9.97;100.00
13695;BME280;6919;52.344;14.518;2024-03-06T10:45:54;101562.38;;;10.00;100.00
13695;BME280;6919;52.344;14.518;2024-03-06T10:48:28;101566.97;;;10.20;100.00
13695;BME280;6919;52.344;14.518;2024-03-06T10:50:58;101562.91;;;10.25;100.00
13695;BME280;6919;52.344;14.518;2024-03-06T10:53:30;101551.19;;;9.95;100.00
13695;BME280;6919;52.344;14.518;2024-03-06T10:56:03;101554.78;;;9.73;100.00
13695;BME280;6919;52.344;14.518;2024-03-06T10:58:34;101550.06;;;9.55;100.00
13695;BME280;6919;52.344;14.518;2024-03-06T11:01:04;101559.22;;;9.41;100.00
13695;BME280;6919;52.344;14.518;2024-03-06T11:03:35;101549.56;;;9.61;100.00
13695;BME280;6919;52.344;14.518;2024-03-06T11:06:05;101547.00;;;9.59;100.00
13695;BME280;6919;52.344;14.518;2024-03-06T11:08:34;101547.84;;;9.71;100.00
13695;BME280;6919;52.344;14.518;2024-03-06T11:11:24;101543.59;;;9.68;100.00
13695;BME280;6919;52.344;14.518;2024-03-06T11:13:55;101537.00;;;9.72;100.00
13695;BME280;6919;52.344;14.518;2024-03-06T11:16:29;101546.22;;;9.90;100.00
13695;BME280;6919;52.344;14.518;2024-03-06T11:19:07;101540.28;;;10.39;100.00
13695;BME280;6919;52.344;14.518;2024-03-06T11:21:46;101542.72;;;10.21;100.00
13695;BME280;6919;52.344;14.518;2024-03-06T11:24:20;101537.84;;;10.15;100.00
13695;BME280;6919;52.344;14.518;2024-03-06T11:26:57;101537.22;;;10.23;100.00
13695;BME280;6919;52.344;14.518;2024-03-06T11:30:03;101538.47;;;10.39;100.00
13695;BME280;6919;52.344;14.518;2024-03-06T11:32:38;101543.03;;;10.28;100.00
13695;BME280;6919;52.344;14.518;2024-03-06T11:35:28;101540.66;;;10.14;100.00
13695;BME280;6919;52.344;14.518;2024-03-06T11:37:58;101544.47;;;10.11;100.00
13695;BME280;6919;52.344;14.518;2024-03-06T11:40:27;101537.66;;;10.28;100.00
13695;BME280;6919;52.344;14.518;2024-03-06T11:43:25;101539.19;;;10.41;100.00
13695;BME280;6919;52.344;14.518;2024-03-06T11:46:07;101538.28;;;10.31;100.00
13695;BME280;6919;52.344;14.518;2024-03-06T11:48:36;101533.88;;;10.10;100.00
13695;BME280;6919;52.344;14.518;2024-03-06T11:51:05;101533.09;;;10.19;100.00
13695;BME280;6919;52.344;14.518;2024-03-06T11:53:34;101544.22;;;10.14;100.00
13695;BME280;6919;52.344;14.518;2024-03-06T11:56:06;101533.75;;;10.11;100.00
13695;BME280;6919;52.344;14.518;2024-03-06T11:58:37;101541.59;;;9.81;100.00
13695;BME280;6919;52.344;14.518;2024-03-06T12:01:06;101544.06;;;9.73;100.00
13695;BME280;6919;52.344;14.518;2024-03-06T12:03:36;101534.16;;;9.85;100.00
13695;BME280;6919;52.344;14.518;2024-03-06T12:06:05;101541.28;;;9.64;100.00
13695;BME280;6919;52.344;14.518;2024-03-06T12:08:35;101541.16;;;9.65;100.00
13695;BME280;6919;52.344;14.518;2024-03-06T12:11:05;101534.69;;;9.68;100.00
13695;BME280;6919;52.344;14.518;2024-03-06T12:13:36;101534.22;;;9.74;100.00
13695;BME280;6919;52.344;14.518;2024-03-06T12:16:06;101526.53;;;10.01;100.00
13695;BME280;6919;52.344;14.518;2024-03-06T12:18:35;101532.50;;;10.04;100.00
13695;BME280;6919;52.344;14.518;2024-03-06T12:21:05;101528.63;;;10.08;100.00
13695;BME280;6919;52.344;14.518;2024-03-06T12:23:33;101531.75;;;10.45;100.00
13695;BME280;6919;52.344;14.518;2024-03-06T12:26:03;101542.47;;;10.45;100.00
13695;BME280;6919;52.344;14.518;2024-03-06T12:28:33;101543.34;;;10.75;100.00
13695;BME280;6919;52.344;14.518;2024-03-06T12:31:04;101538.31;;;10.82;100.00
13695;BME280;6919;52.344;14.518;2024-03-06T12:33:35;101542.78;;;10.72;100.00
13695;BME280;6919;52.344;14.518;2024-03-06T12:36:05;101545.44;;;9.99;100.00
13695;BME280;6919;52.344;14.518;2024-03-06T12:38:37;101541.16;;;10.08;100.00
13695;BME280;6919;52.344;14.518;2024-03-06T12:41:06;101536.19;;;10.03;100.00
13695;BME280;6919;52.344;14.518;2024-03-06T12:43:34;101534.38;;;9.93;100.00
13695;BME280;6919;52.344;14.518;2024-03-06T12:46:04;101540.81;;;9.70;100.00
13695;BME280;6919;52.344;14.518;2024-03-06T12:48:33;101542.00;;;9.77;100.00
13695;BME280;6919;52.344;14.518;2024-03-06T12:51:02;101536.28;;;9.70;100.00
13695;BME280;6919;52.344;14.518;2024-03-06T12:53:32;101535.56;;;9.68;100.00
13695;BME280;6919;52.344;14.518;2024-03-06T12:56:03;101534.97;;;9.54;100.00
13695;BME280;6919;52.344;14.518;2024-03-06T12:58:33;101531.09;;;9.47;100.00
13695;BME280;6919;52.344;14.518;2024-03-06T13:01:04;101539.38;;;9.44;100.00
13695;BME280;6919;52.344;14.518;2024-03-06T13:03:33;101536.81;;;9.64;100.00
13695;BME280;6919;52.344;14.518;2024-03-06T13:06:02;101532.91;;;9.46;100.00
13695;BME280;6919;52.344;14.518;2024-03-06T13:08:31;101539.44;;;9.75;100.00